Currently 64°F in Fallbrook, California, USA
64°F
66°F / 64°F
calm
0.00"
Sunday, August 25, 2019 6:33 AM PDT

Fallbrook, California Weather Summary
Last 36 Hours

Temperature Winds Hourly Humidity Dewpoint
Time Report Norm Report Norm Max Gusts Precip. Rpt. Norm Rpt. Norm Pressure
1Sun 06:33 AM  64.2°F  64°F  calm  calm  none  0.00"  100%  95%  64°F  62°F  29.97"
3Sun 06:28 AM  64.1°F  64°F  calm  calm  none  ----  100%  95%  64°F  63°F  29.97"
Sun 06:00 AM  64.4°F  64°F  calm  calm  none  0.00"  100%  95%  64°F  63°F  29.97"
Sun 05:00 AM  64.6°F  64°F  calm  calm  none  0.00"  100%  95%  65°F  63°F  29.96"
Sun 04:00 AM  65.0°F  65°F  calm  calm  none  0.00"  100%  95%  65°F  63°F  29.96"
Sun 03:00 AM  65.1°F  65°F  calm  calm  none  0.00"  100%  95%  65°F  64°F  29.96"
Sun 02:00 AM  65.7°F  65°F  calm  calm  none  0.00"  100%  95%  66°F  64°F  29.96"
Sun 01:00 AM  65.9°F  66°F  calm  calm  none  0.00"  100%  95%  66°F  64°F  29.97"
2Sun 12:06 AM  66.2°F  66°F  calm  calm  none  ----  100%  94%  66°F  64°F  29.97"
Sun 12:00 AM  66.2°F  66°F  calm  calm  none  0.00"  100%  94%  66°F  64°F  29.97"
Sat 11:00 PM  67.2°F  66°F  calm  calm  none  0.00"  100%  93%  67°F  64°F  29.97"
Sat 10:00 PM  67.7°F  67°F  calm  calm  none  0.00"  100%  92%  68°F  64°F  29.96"
Sat 09:00 PM  68.8°F  68°F  calm  calm  5 mph  0.00"  97%  89%  68°F  64°F  29.96"
Sat 08:00 PM  71.2°F  70°F  calm  calm  5 mph  0.00"  87%  84%  67°F  65°F  29.94"
Sat 07:00 PM  75.4°F  73°F  2 mph SW  2 mph  6 mph  0.00"  74%  74%  66°F  64°F  29.93"
Sat 06:00 PM  79.2°F  77°F  1 mph S  3 mph  8 mph  0.00"  64%  64%  65°F  64°F  29.92"
Sat 05:00 PM  80.4°F  81°F  4 mph SW  5 mph  8 mph  0.00"  62%  56%  66°F  63°F  29.91"
Sat 04:00 PM  84.8°F  83°F  3 mph S  5 mph  8 mph  0.00"  52%  52%  64°F  63°F  29.90"
Sat 03:00 PM  85.8°F  84°F  2 mph S  5 mph  9 mph  0.00"  51%  50%  65°F  63°F  29.90"
Sat 02:00 PM  85.6°F  85°F  4 mph S  5 mph  9 mph  0.00"  52%  50%  66°F  63°F  29.91"
Sat 01:00 PM  87.3°F  85°F  3 mph SW  5 mph  7 mph  0.00"  50%  51%  66°F  64°F  29.91"
Sat 12:00 PM  87.5°F  83°F  4 mph SW  3 mph  7 mph  0.00"  50%  55%  66°F  65°F  29.91"
Sat 11:00 AM  85.3°F  80°F  calm  2 mph  6 mph  0.00"  52%  63%  65°F  66°F  29.92"
Sat 10:00 AM  80.6°F  75°F  1 mph S  1 mph  4 mph  0.00"  59%  75%  64°F  66°F  29.92"
Sat 09:00 AM  71.5°F  70°F  calm  calm  none  0.00"  87%  85%  67°F  65°F  29.93"
Sat 08:00 AM  64.8°F  66°F  calm  calm  none  0.00"  100%  92%  65°F  64°F  29.93"
Sat 07:00 AM  61.8°F  64°F  calm  calm  none  0.00"  100%  95%  62°F  63°F  29.93"
Sat 06:00 AM  61.6°F  64°F  calm  calm  none  0.00"  100%  95%  62°F  63°F  29.91"
Sat 05:00 AM  61.6°F  64°F  calm  calm  none  0.00"  100%  95%  62°F  63°F  29.91"
Sat 04:00 AM  62.5°F  65°F  calm  calm  none  0.00"  100%  96%  63°F  63°F  29.90"
Sat 03:00 AM  62.8°F  65°F  calm  calm  none  0.00"  100%  96%  63°F  63°F  29.91"
Sat 02:00 AM  63.5°F  65°F  calm  calm  none  0.00"  100%  96%  64°F  64°F  29.91"
Sat 01:00 AM  63.9°F  65°F  calm  calm  none  0.00"  100%  95%  64°F  64°F  29.92"
Sat 12:00 AM  64.1°F  66°F  calm  calm  none  0.00"  100%  95%  64°F  64°F  29.91"
Fri 11:00 PM  64.6°F  66°F  calm  calm  none  0.00"  100%  94%  64°F  64°F  29.90"
Fri 10:00 PM  65.6°F  67°F  calm  calm  none  0.00"  97%  92%  65°F  64°F  29.88"
Fri 09:00 PM  66.9°F  68°F  calm  calm  none  0.00"  90%  90%  64°F  64°F  29.86"
Fri 08:00 PM  69.5°F  69°F  calm  calm  4 mph  0.00"  81%  85%  63°F  65°F  29.84"
Fri 07:00 PM  75.2°F  73°F  calm  2 mph  6 mph  0.00"  67%  75%  63°F  64°F  29.82"

  1. Current weather data. No green row appears if the current weather data is also the high or low for the current day.
  2. High temperature for the current day.
  3. Low temperature for the current day.

The Fallbrook weather pages are a service of WeatherCurrents. Fallbrook, California is located in northern San Diego County, close to I15 and Camp Pendleton, and is home to ranches, avocado and citrus groves, and plant nurseries.
Copyright ©2019  WeatherCurrents. All rights reserved. - Submit questions and comments - Privacy Policy

This page automatically refreshes every 10 minutes.